Time;durP1;ratioP1;P1;durP2;ratioP2;P2;SDS_P1;SDS_P2;PMS_P1;PMS_P2;Temp;Humidity;BMP_temperature;BMP_pressure;BME280_temperature;BME280_humidity;BME280_pressure;Samples;Min_cycle;Max_cycle;Signal;HPM_P1;HPM_P2
2022/11/26 00:01:36;;;;;;;59.67;29.92;;;;;;;4.58;75.96;99017.19;5050655;28;20036;-69
2022/11/26 00:04:02;;;;;;;62.92;29.77;;;;;;;4.52;75.85;99016.25;5051199;28;20049;-69
2022/11/26 00:06:48;;;;;;;57.63;28.42;;;;;;;4.45;75.73;99021.81;5051166;28;20021;-69
2022/11/26 00:09:18;;;;;;;54.13;26.85;;;;;;;4.43;76.25;99023.97;5049571;28;20036;-69
2022/11/26 00:11:43;;;;;;;52.83;26.02;;;;;;;4.40;76.66;99021.72;5049975;28;20092;-69
2022/11/26 00:14:15;;;;;;;48.20;25.00;;;;;;;4.35;76.82;99027.06;5050555;28;20025;-69
2022/11/26 00:16:41;;;;;;;59.30;27.63;;;;;;;4.32;76.66;99030.25;5050374;28;20029;-69
2022/11/26 00:19:07;;;;;;;57.10;27.02;;;;;;;4.28;76.50;99029.09;5050019;28;20055;-69
2022/11/26 00:21:34;;;;;;;55.97;27.00;;;;;;;4.24;76.61;99030.66;5048471;28;20024;-69
2022/11/26 00:24:01;;;;;;;51.03;24.45;;;;;;;4.24;76.67;99030.66;5050724;28;20025;-69
2022/11/26 00:26:27;;;;;;;57.05;26.25;;;;;;;4.19;76.77;99031.34;5050731;28;20043;-69
2022/11/26 00:28:55;;;;;;;54.22;25.52;;;;;;;4.17;76.34;99037.03;5049651;28;20056;-69
2022/11/26 00:31:22;;;;;;;50.03;24.58;;;;;;;4.16;76.78;99024.53;5050224;28;20844;-68
2022/11/26 00:33:47;;;;;;;49.55;24.10;;;;;;;4.19;76.81;99036.78;5050058;28;20025;-69
2022/11/26 00:36:26;;;;;;;49.63;24.13;;;;;;;4.17;76.69;99034.31;5049856;28;20083;-69
2022/11/26 00:39:17;;;;;;;53.55;26.08;;;;;;;4.15;76.06;99044.59;5048433;28;20501;-69
2022/11/26 00:41:47;;;;;;;60.45;28.17;;;;;;;4.16;76.23;99038.09;5044861;28;20033;-69
2022/11/26 00:44:20;;;;;;;67.75;29.60;;;;;;;4.16;76.84;99045.41;5047918;28;20558;-69
2022/11/26 00:46:47;;;;;;;61.60;28.23;;;;;;;4.16;76.82;99046.25;5050035;28;20521;-68
2022/11/26 00:49:14;;;;;;;60.75;32.30;;;;;;;4.16;76.26;99045.41;5049460;28;20086;-70
2022/11/26 00:51:39;;;;;;;60.05;29.15;;;;;;;4.17;76.63;99057.91;5050180;28;20106;-69
2022/11/26 00:54:05;;;;;;;68.20;30.02;;;;;;;4.17;76.76;99047.06;5049471;28;20020;-69
2022/11/26 00:56:32;;;;;;;66.72;32.30;;;;;;;4.15;76.77;99050.03;5048719;28;20029;-69
2022/11/26 00:58:57;;;;;;;64.50;32.72;;;;;;;4.14;76.33;99047.53;5048784;28;20063;-69
2022/11/26 01:01:24;;;;;;;71.55;31.90;;;;;;;4.13;76.04;99057.59;5049693;28;20025;-69
2022/11/26 01:03:50;;;;;;;73.38;32.65;;;;;;;4.09;76.36;99064.56;5049297;28;20470;-69
2022/11/26 01:06:29;;;;;;;73.07;32.38;;;;;;;4.05;76.24;99059.84;5049938;28;20075;-69
2022/11/26 01:08:55;;;;;;;74.80;33.50;;;;;;;4.01;75.91;99057.59;5048847;28;20037;-69
2022/11/26 01:11:22;;;;;;;68.88;30.50;;;;;;;4.00;75.92;99068.69;5049224;28;20025;-69
2022/11/26 01:13:49;;;;;;;67.82;30.98;;;;;;;3.96;76.25;99070.22;5049850;28;20692;-70
2022/11/26 01:16:30;;;;;;;74.05;34.72;;;;;;;3.90;76.27;99074.72;5049380;28;20108;-69
2022/11/26 01:18:58;;;;;;;71.75;30.98;;;;;;;3.91;75.80;99080.97;5047643;28;20044;-69
2022/11/26 01:21:26;;;;;;;59.30;27.02;;;;;;;3.87;76.54;99073.28;5049325;28;20041;-69
2022/11/26 01:23:52;;;;;;;54.15;25.88;;;;;;;3.86;76.31;99081.69;5049853;28;20044;-69
2022/11/26 01:26:21;;;;;;;56.78;26.05;;;;;;;3.83;75.97;99076.72;5049524;28;20495;-69
2022/11/26 01:28:46;;;;;;;54.45;25.92;;;;;;;3.80;76.39;99079.91;5048161;28;20473;-68
2022/11/26 01:31:20;;;;;;;64.28;29.95;;;;;;;3.78;76.12;99074.72;5049210;28;20059;-69
2022/11/26 01:33:47;;;;;;;65.47;31.52;;;;;;;3.73;75.73;99078.13;5048509;28;20033;-69
2022/11/26 01:36:19;;;;;;;60.97;29.92;;;;;;;3.71;75.66;99084.88;5048357;28;20075;-69
2022/11/26 01:38:44;;;;;;;70.32;34.13;;;;;;;3.68;75.99;99091.59;5047552;28;20060;-69
2022/11/26 01:41:24;;;;;;;66.57;32.15;;;;;;;3.63;76.16;99083.34;5048915;28;20055;-69
2022/11/26 01:43:51;;;;;;;52.03;27.65;;;;;;;3.59;75.62;99090.31;5049165;28;20028;-68
2022/11/26 01:46:19;;;;;;;57.80;30.35;;;;;;;3.55;75.53;99094.53;5048527;28;20032;-69
2022/11/26 01:48:46;;;;;;;53.03;27.65;;;;;;;3.53;75.91;99089.34;5047834;28;20131;-69
2022/11/26 01:51:12;;;;;;;58.67;31.92;;;;;;;3.51;76.19;99099.59;5048171;28;20086;-69
2022/11/26 01:53:52;;;;;;;60.10;28.02;;;;;;;3.50;75.99;99094.41;5048408;28;20017;-69
2022/11/26 01:56:35;;;;;;;57.20;28.50;;;;;;;3.50;76.52;99100.66;5048763;28;20068;-69
2022/11/26 01:59:09;;;;;;;63.63;31.15;;;;;;;3.52;76.59;99097.72;5045822;28;20055;-69
2022/11/26 02:01:35;;;;;;;64.90;34.65;;;;;;;3.54;76.75;99099.13;5047256;28;20021;-69
2022/11/26 02:04:06;;;;;;;68.45;31.77;;;;;;;3.53;76.33;99093.94;5048569;28;20047;-69
2022/11/26 02:06:33;;;;;;;55.22;27.55;;;;;;;3.57;76.09;99100.56;5046915;28;20485;-69
2022/11/26 02:09:05;;;;;;;60.15;29.00;;;;;;;3.61;76.38;99092.75;5047705;28;20029;-69
2022/11/26 02:11:31;;;;;;;60.20;28.55;;;;;;;3.66;76.57;99087.47;5047378;28;20021;-69
2022/11/26 02:14:13;;;;;;;61.22;29.65;;;;;;;3.69;76.69;99093.22;5047957;28;20020;-69
2022/11/26 02:17:16;;;;;;;58.65;28.25;;;;;;;3.73;77.08;99096.31;5047135;28;20031;-69
2022/11/26 02:20:19;;;;;;;63.97;31.15;;;;;;;3.79;77.16;99098.09;5039225;28;20825;-69
2022/11/26 02:22:54;;;;;;;56.08;26.83;;;;;;;3.84;76.61;99102.81;5047998;28;20112;-69
2022/11/26 02:25:37;;;;;;;53.00;27.08;;;;;;;3.87;77.28;99094.19;5049615;28;20612;-69
2022/11/26 02:28:50;;;;;;;56.13;28.55;;;;;;;3.92;77.22;99097.03;5048702;28;20037;-69
2022/11/26 02:31:32;;;;;;;59.15;28.67;;;;;;;3.97;77.48;99093.59;5049003;28;20052;-69
2022/11/26 02:34:30;;;;;;;58.45;28.90;;;;;;;3.98;76.90;99103.38;5047169;28;20032;-69
2022/11/26 02:37:07;;;;;;;54.60;27.77;;;;;;;3.99;76.66;99091.47;5033829;28;20508;-69
2022/11/26 02:39:32;;;;;;;61.00;30.15;;;;;;;4.01;76.69;99097.47;5047835;28;20013;-69
2022/11/26 02:42:03;;;;;;;51.83;26.27;;;;;;;4.01;77.25;99090.19;5048879;28;20009;-69
2022/11/26 02:44:40;;;;;;;51.45;26.48;;;;;;;4.02;77.33;99094.53;5049818;28;20051;-69
2022/11/26 02:47:10;;;;;;;55.10;27.23;;;;;;;4.03;76.71;99095.34;5049052;28;20029;-69
2022/11/26 02:49:39;;;;;;;49.10;25.30;;;;;;;4.03;77.35;99095.34;5048217;28;20064;-69
2022/11/26 02:52:07;;;;;;;54.92;26.85;;;;;;;4.02;77.15;99099.13;5048079;28;20045;-69
2022/11/26 02:54:35;;;;;;;48.65;24.80;;;;;;;4.02;76.83;99102.69;5048786;28;20065;-70
2022/11/26 02:57:04;;;;;;;48.55;24.77;;;;;;;4.02;76.84;99099.13;5048548;28;20086;-69
2022/11/26 02:59:30;;;;;;;45.47;24.92;;;;;;;4.04;77.27;99109.78;5047917;28;20032;-69
2022/11/26 03:02:02;;;;;;;50.35;26.23;;;;;;;4.04;77.76;99112.47;5048100;28;20535;-69
2022/11/26 03:04:33;;;;;;;52.38;25.85;;;;;;;4.06;77.03;99104.94;5047406;28;20076;-69
2022/11/26 03:07:03;;;;;;;49.83;25.73;;;;;;;4.06;77.27;99102.22;5050816;28;20021;-69
2022/11/26 03:09:48;;;;;;;49.22;25.33;;;;;;;4.07;77.53;99107.41;5051787;28;20064;-69
2022/11/26 03:12:13;;;;;;;49.80;25.42;;;;;;;4.09;77.52;99105.28;5051583;28;20055;-69
2022/11/26 03:14:38;;;;;;;48.85;25.67;;;;;;;4.12;77.85;99103.97;5052675;28;20048;-69
2022/11/26 03:17:04;;;;;;;52.03;27.15;;;;;;;4.14;77.12;99108.09;5052767;28;20067;-69
2022/11/26 03:19:29;;;;;;;49.92;25.52;;;;;;;4.15;77.55;99103.47;5052230;28;20024;-69
2022/11/26 03:21:55;;;;;;;50.90;27.23;;;;;;;4.17;77.68;99104.91;5052457;28;20021;-69
2022/11/26 03:24:20;;;;;;;52.97;29.05;;;;;;;4.20;77.93;99103.59;5052532;28;20385;-69
2022/11/26 03:26:45;;;;;;;48.25;25.45;;;;;;;4.25;77.87;99111.03;5052514;28;20025;-69
2022/11/26 03:29:11;;;;;;;46.53;24.13;;;;;;;4.28;77.42;99113.28;5052501;28;20054;-69
2022/11/26 03:31:36;;;;;;;51.60;27.58;;;;;;;4.32;77.67;99115.28;5050993;28;20025;-70
2022/11/26 03:34:01;;;;;;;50.88;28.05;;;;;;;4.33;77.81;99113.38;5052987;28;20017;-69
2022/11/26 03:36:27;;;;;;;46.70;25.20;;;;;;;4.35;77.85;99118.56;5051914;28;20385;-69
2022/11/26 03:38:52;;;;;;;50.70;27.83;;;;;;;4.38;77.87;99118.91;5051191;28;20059;-69
2022/11/26 03:41:18;;;;;;;53.70;30.60;;;;;;;4.38;77.63;99118.91;5051337;28;20037;-69
2022/11/26 03:43:43;;;;;;;46.40;25.73;;;;;;;4.37;77.31;99117.25;5051126;28;20025;-69
2022/11/26 03:46:08;;;;;;;54.38;30.50;;;;;;;4.35;77.49;99113.97;5051735;28;20013;-69
2022/11/26 03:48:34;;;;;;;50.55;26.42;;;;;;;4.34;77.60;99119.63;5051680;28;20485;-69
2022/11/26 03:50:59;;;;;;;46.45;27.08;;;;;;;4.32;77.42;99118.00;5052112;28;20037;-69
2022/11/26 03:53:24;;;;;;;50.97;26.48;;;;;;;4.31;77.51;99120.94;5050487;28;20112;-69
2022/11/26 03:55:50;;;;;;;49.33;25.15;;;;;;;4.30;77.35;99122.84;5051812;28;20473;-69
2022/11/26 03:58:15;;;;;;;47.90;26.15;;;;;;;4.30;77.28;99127.41;5051678;28;20021;-70
2022/11/26 04:00:40;;;;;;;51.58;28.25;;;;;;;4.27;77.17;99122.50;5051943;28;20108;-69
2022/11/26 04:03:06;;;;;;;48.97;28.05;;;;;;;4.24;77.20;99121.06;5051597;28;20366;-69
2022/11/26 04:05:31;;;;;;;49.55;26.60;;;;;;;4.21;77.69;99123.44;5051639;28;20102;-69
2022/11/26 04:07:56;;;;;;;46.88;26.02;;;;;;;4.20;77.92;99132.66;5051665;28;20021;-69
2022/11/26 04:10:22;;;;;;;48.40;26.77;;;;;;;4.17;77.69;99131.22;5052103;28;20032;-69
2022/11/26 04:12:47;;;;;;;46.60;24.88;;;;;;;4.15;78.01;99127.91;5051573;28;20071;-69
2022/11/26 04:15:13;;;;;;;47.38;24.50;;;;;;;4.13;77.77;99122.75;5050174;28;20138;-69
2022/11/26 04:17:38;;;;;;;44.28;23.55;;;;;;;4.14;77.38;99132.53;5050751;28;20029;-70
2022/11/26 04:20:04;;;;;;;46.63;24.55;;;;;;;4.15;77.50;99133.34;5051255;28;20029;-70
2022/11/26 04:22:30;;;;;;;45.35;25.20;;;;;;;4.17;77.52;99136.66;5051671;28;20100;-69
2022/11/26 04:24:55;;;;;;;44.33;24.85;;;;;;;4.19;77.43;99136.44;5051643;28;20127;-70
2022/11/26 04:27:20;;;;;;;48.55;25.08;;;;;;;4.19;78.17;99147.28;5051566;28;20493;-69
2022/11/26 04:29:46;;;;;;;47.72;24.88;;;;;;;4.19;77.76;99144.56;5051070;28;20416;-69
2022/11/26 04:32:11;;;;;;;45.25;24.75;;;;;;;4.19;77.47;99150.81;5051226;28;20032;-69
2022/11/26 04:34:37;;;;;;;46.00;24.98;;;;;;;4.20;77.73;99152.47;5051187;28;20036;-69
2022/11/26 04:37:02;;;;;;;46.63;23.45;;;;;;;4.22;77.85;99163.91;5051331;28;20448;-69
2022/11/26 04:39:27;;;;;;;47.88;24.95;;;;;;;4.22;77.53;99166.63;5051344;28;20021;-69
2022/11/26 04:41:53;;;;;;;50.42;25.77;;;;;;;4.23;78.05;99164.75;5051242;28;20055;-69
2022/11/26 04:44:19;;;;;;;45.22;24.80;;;;;;;4.24;77.99;99167.22;5051167;28;20500;-69
2022/11/26 04:46:45;;;;;;;45.40;24.95;;;;;;;4.25;78.02;99165.34;5052327;28;20378;-69
2022/11/26 04:49:10;;;;;;;42.95;23.45;;;;;;;4.30;78.21;99165.44;5050085;28;20028;-69
2022/11/26 04:51:36;;;;;;;44.33;25.10;;;;;;;4.34;78.08;99165.81;5032947;28;20573;-69
2022/11/26 04:54:01;;;;;;;43.60;23.98;;;;;;;4.37;78.25;99166.16;5050953;28;20029;-69
2022/11/26 04:56:26;;;;;;;43.50;26.17;;;;;;;4.40;77.98;99162.97;5050691;28;20023;-69
2022/11/26 04:58:52;;;;;;;45.20;24.75;;;;;;;4.42;77.96;99166.25;5049022;28;20048;-69
2022/11/26 05:01:17;;;;;;;47.40;25.88;;;;;;;4.43;77.51;99170.63;5050636;28;20025;-70
2022/11/26 05:03:42;;;;;;;47.08;24.90;;;;;;;4.44;78.25;99175.00;5050756;28;20021;-70
2022/11/26 05:06:09;;;;;;;42.63;24.08;;;;;;;4.42;77.58;99170.88;5050776;28;20036;-69
2022/11/26 05:08:34;;;;;;;45.00;24.30;;;;;;;4.42;78.04;99179.03;5050344;28;20032;-69
2022/11/26 05:11:01;;;;;;;44.55;24.17;;;;;;;4.43;77.75;99180.69;5050853;28;20021;-69
2022/11/26 05:13:27;;;;;;;48.50;25.35;;;;;;;4.43;78.06;99181.50;5050917;28;20107;-70
2022/11/26 05:15:53;;;;;;;75.57;35.47;;;;;;;4.45;77.70;99179.38;5050021;28;20032;-69
2022/11/26 05:18:18;;;;;;;46.30;25.58;;;;;;;4.46;78.07;99186.44;5049537;28;20024;-69
2022/11/26 05:20:44;;;;;;;45.92;25.08;;;;;;;4.47;77.69;99188.09;5050546;28;20016;-69
2022/11/26 05:23:09;;;;;;;44.25;24.40;;;;;;;4.47;78.11;99190.81;5050812;28;20484;-69
2022/11/26 05:25:35;;;;;;;42.25;23.42;;;;;;;4.47;78.19;99193.53;5050409;28;20021;-70
2022/11/26 05:28:00;;;;;;;47.30;24.90;;;;;;;4.48;77.79;99186.22;5049364;28;20024;-69
2022/11/26 05:30:26;;;;;;;41.05;23.65;;;;;;;4.49;77.76;99190.56;5049510;28;20017;-69
2022/11/26 05:32:52;;;;;;;44.53;24.67;;;;;;;4.52;77.68;99192.00;5050031;28;20033;-69
2022/11/26 05:35:18;;;;;;;47.33;25.48;;;;;;;4.55;78.33;99197.78;5052982;28;20544;-69
2022/11/26 05:37:43;;;;;;;45.03;24.98;;;;;;;4.59;77.72;99200.84;5049776;28;20112;-70
2022/11/26 05:40:09;;;;;;;46.30;24.75;;;;;;;4.62;77.69;99197.66;5049625;28;20054;-69
2022/11/26 05:42:35;;;;;;;44.10;24.55;;;;;;;4.66;77.94;99200.72;5050151;28;20033;-69
2022/11/26 05:45:00;;;;;;;43.75;25.55;;;;;;;4.70;77.95;99207.34;5049568;28;20136;-69
2022/11/26 05:47:26;;;;;;;47.95;25.92;;;;;;;4.72;78.16;99208.72;5050592;28;20029;-68
2022/11/26 05:49:51;;;;;;;43.30;23.77;;;;;;;4.75;78.05;99218.31;5050424;28;20052;-69
2022/11/26 05:52:16;;;;;;;45.05;24.90;;;;;;;4.77;78.23;99224.34;5050408;28;20162;-70
2022/11/26 05:54:42;;;;;;;45.83;26.90;;;;;;;4.79;77.71;99230.38;5049864;28;20032;-70
2022/11/26 05:57:07;;;;;;;39.58;22.90;;;;;;;4.81;78.17;99232.81;5049802;28;20028;-69
2022/11/26 05:59:32;;;;;;;36.47;21.90;;;;;;;4.83;78.06;99225.25;5048503;28;20024;-70
2022/11/26 06:01:58;;;;;;;42.22;21.92;;;;;;;4.85;78.03;99226.69;5049216;28;20104;-69
2022/11/26 06:04:24;;;;;;;42.25;22.63;;;;;;;4.88;77.64;99233.53;5049319;28;20121;-69
2022/11/26 06:06:49;;;;;;;41.70;21.92;;;;;;;4.89;77.54;99230.56;5049406;28;20013;-69
2022/11/26 06:09:16;;;;;;;37.50;21.63;;;;;;;4.91;77.51;99233.06;5048137;28;20112;-69
2022/11/26 06:11:41;;;;;;;35.90;20.17;;;;;;;4.93;77.98;99239.06;5049144;28;20066;-69
2022/11/26 06:14:09;;;;;;;39.75;22.67;;;;;;;4.95;77.47;99236.09;5048942;28;20028;-69
2022/11/26 06:16:34;;;;;;;38.25;22.15;;;;;;;4.99;78.19;99238.13;5047804;28;20021;-69
2022/11/26 06:18:59;;;;;;;40.13;22.50;;;;;;;5.02;77.83;99244.97;5047706;28;20089;-69
2022/11/26 06:21:25;;;;;;;40.13;22.70;;;;;;;5.05;78.20;99245.31;5049983;28;20021;-70
2022/11/26 06:23:50;;;;;;;35.67;20.90;;;;;;;5.12;77.87;99252.50;5049827;28;20063;-69
2022/11/26 06:26:16;;;;;;;35.40;20.90;;;;;;;5.13;78.05;99254.97;5049441;28;20057;-69
2022/11/26 06:28:41;;;;;;;40.45;21.95;;;;;;;5.17;77.50;99258.88;5047356;28;20036;-69
2022/11/26 06:31:09;;;;;;;52.33;26.70;;;;;;;5.21;77.79;99260.06;5049852;28;20390;-69
2022/11/26 06:33:35;;;;;;;51.25;26.23;;;;;;;5.23;77.77;99259.78;5049558;28;20021;-70
2022/11/26 06:36:02;;;;;;;49.20;25.73;;;;;;;5.28;77.51;99264.53;5051289;28;20036;-70
2022/11/26 06:38:27;;;;;;;58.15;31.70;;;;;;;5.32;77.75;99265.66;5046872;28;20029;-69
2022/11/26 06:41:04;;;;;;;57.22;33.42;;;;;;;5.35;77.80;99265.19;5049199;28;20104;-70
2022/11/26 06:43:30;;;;;;;52.10;29.42;;;;;;;5.37;77.64;99276.66;5049097;28;20016;-69
2022/11/26 06:46:10;;;;;;;50.97;27.73;;;;;;;5.39;77.36;99273.72;5048900;28;20032;-70
2022/11/26 06:48:36;;;;;;;55.88;29.85;;;;;;;5.44;77.43;99281.97;5048498;28;20700;-69
2022/11/26 06:51:10;;;;;;;53.38;29.73;;;;;;;5.45;77.78;99279.00;5048924;28;20536;-69
2022/11/26 06:53:36;;;;;;;61.38;34.05;;;;;;;5.45;77.82;99276.28;5049356;28;20017;-69
2022/11/26 06:56:08;;;;;;;81.28;41.60;;;;;;;5.44;77.35;99282.78;5049323;28;20071;-69
2022/11/26 06:58:34;;;;;;;64.75;34.22;;;;;;;5.45;77.18;99279.00;5045189;28;20027;-69
2022/11/26 07:00:59;;;;;;;57.70;29.70;;;;;;;5.44;77.24;99288.22;5047317;28;20033;-70
2022/11/26 07:03:25;;;;;;;56.47;28.13;;;;;;;5.45;77.33;99289.06;5049021;28;20032;-70
2022/11/26 07:05:50;;;;;;;87.07;39.42;;;;;;;5.44;77.45;99288.22;5049061;28;20024;-70
2022/11/26 07:08:16;;;;;;;145.02;60.47;;;;;;;5.45;77.63;99294.50;5047428;28;20059;-70
2022/11/26 07:10:42;;;;;;;130.30;55.17;;;;;;;5.47;77.45;99292.38;5048847;28;20081;-70
2022/11/26 07:13:07;;;;;;;169.88;72.25;;;;;;;5.46;77.29;99294.25;5049182;28;20450;-70
2022/11/26 07:15:32;;;;;;;200.45;91.40;;;;;;;5.47;77.59;99295.91;5049031;28;20028;-69
2022/11/26 07:17:58;;;;;;;208.82;93.75;;;;;;;5.50;77.66;99300.06;5048522;28;20111;-69
2022/11/26 07:20:24;;;;;;;128.73;62.08;;;;;;;5.52;77.35;99306.06;5048139;28;20469;-69
2022/11/26 07:22:49;;;;;;;67.97;34.30;;;;;;;5.55;77.89;99302.03;5048761;28;20398;-69
2022/11/26 07:25:16;;;;;;;55.05;29.67;;;;;;;5.56;77.82;99306.41;5049058;28;20366;-70
2022/11/26 07:27:42;;;;;;;54.97;29.23;;;;;;;5.55;77.52;99311.00;5049088;28;20020;-70
2022/11/26 07:30:08;;;;;;;60.17;33.33;;;;;;;5.54;77.95;99305.81;5048523;28;20024;-70
2022/11/26 07:32:33;;;;;;;62.80;34.33;;;;;;;5.55;77.71;99308.28;5048935;28;20017;-70
2022/11/26 07:35:00;;;;;;;74.47;37.72;;;;;;;5.57;77.67;99308.88;5048927;28;20082;-70
2022/11/26 07:37:26;;;;;;;72.47;37.60;;;;;;;5.58;78.06;99315.16;5047830;28;20028;-69
2022/11/26 07:39:53;;;;;;;71.95;36.13;;;;;;;5.58;77.88;99307.81;5048415;28;20028;-70
2022/11/26 07:42:18;;;;;;;65.03;34.13;;;;;;;5.55;77.41;99321.09;5048078;28;20143;-70
2022/11/26 07:44:43;;;;;;;70.90;37.55;;;;;;;5.49;77.49;99323.69;5048697;28;20021;-69
2022/11/26 07:47:09;;;;;;;100.55;45.15;;;;;;;5.46;77.82;99323.38;5049006;28;20040;-70
2022/11/26 07:49:34;;;;;;;150.68;62.83;;;;;;;5.42;77.79;99325.72;5050545;28;20493;-70
2022/11/26 07:51:59;;;;;;;119.57;51.08;;;;;;;5.39;77.20;99328.13;5048493;28;20041;-69
2022/11/26 07:54:25;;;;;;;96.72;46.42;;;;;;;5.34;77.45;99331.53;5052178;28;20025;-70
2022/11/26 07:56:50;;;;;;;79.40;40.50;;;;;;;5.26;77.33;99334.66;5034483;28;20020;-69
2022/11/26 07:59:15;;;;;;;69.63;37.15;;;;;;;5.24;77.49;99331.34;5051906;28;20104;-70
2022/11/26 08:01:41;;;;;;;69.07;36.00;;;;;;;5.24;77.74;99343.03;5052237;28;20483;-69
2022/11/26 08:04:06;;;;;;;73.57;34.95;;;;;;;5.24;77.55;99343.03;5051895;28;20056;-69
2022/11/26 08:06:32;;;;;;;68.68;34.63;;;;;;;5.27;77.70;99344.47;5052157;28;20033;-69
2022/11/26 08:08:59;;;;;;;57.50;30.35;;;;;;;5.29;77.99;99345.88;5052068;28;20020;-69
2022/11/26 08:11:27;;;;;;;58.70;32.33;;;;;;;5.29;77.65;99350.50;5048743;28;20760;-69
2022/11/26 08:13:55;;;;;;;54.53;29.48;;;;;;;5.31;78.14;99356.50;5052261;28;20025;-69
2022/11/26 08:16:20;;;;;;;59.40;32.30;;;;;;;5.32;77.97;99348.13;5051739;28;20046;-69
2022/11/26 08:18:46;;;;;;;57.50;31.83;;;;;;;5.35;78.14;99354.97;5051486;28;20671;-69
2022/11/26 08:21:11;;;;;;;55.55;32.38;;;;;;;5.36;78.14;99354.72;5051567;28;20029;-70
2022/11/26 08:23:37;;;;;;;52.05;29.15;;;;;;;5.39;78.42;99355.31;5051048;28;20036;-70
2022/11/26 08:26:11;;;;;;;60.83;33.20;;;;;;;5.39;78.13;99347.97;5051981;28;20028;-69
2022/11/26 08:28:37;;;;;;;56.33;30.75;;;;;;;5.42;78.50;99355.66;5050649;28;20025;-69
2022/11/26 08:31:04;;;;;;;56.35;31.48;;;;;;;5.46;78.62;99354.09;5051764;28;20032;-70
2022/11/26 08:33:31;;;;;;;50.50;30.65;;;;;;;5.49;78.42;99355.53;5053929;28;20111;-69
2022/11/26 08:35:57;;;;;;;51.72;30.27;;;;;;;5.53;78.63;99358.59;5049249;28;20032;-70
2022/11/26 08:38:22;;;;;;;53.88;30.75;;;;;;;5.54;78.32;99362.97;5052289;28;20029;-70
2022/11/26 08:40:48;;;;;;;54.60;29.75;;;;;;;5.55;78.67;99360.00;5052928;28;20055;-69
2022/11/26 08:43:13;;;;;;;55.00;30.08;;;;;;;5.60;78.60;99362.81;5052282;28;20504;-69
2022/11/26 08:45:38;;;;;;;57.95;30.55;;;;;;;5.63;78.19;99362.34;5052498;28;20121;-70
2022/11/26 08:48:04;;;;;;;53.45;31.00;;;;;;;5.70;78.41;99367.66;5051138;28;20039;-70
2022/11/26 08:50:30;;;;;;;49.40;29.40;;;;;;;5.74;78.60;99360.66;5052574;28;20111;-70
2022/11/26 08:52:55;;;;;;;49.53;29.55;;;;;;;5.81;78.34;99369.50;5052024;28;20032;-70
2022/11/26 08:55:20;;;;;;;52.50;27.60;;;;;;;5.86;78.58;99374.25;5052644;28;20116;-69
2022/11/26 08:57:46;;;;;;;45.72;24.58;;;;;;;5.87;79.09;99361.44;5051387;28;20028;-69
2022/11/26 09:00:12;;;;;;;41.88;25.42;;;;;;;5.85;78.89;99369.88;5049827;28;20408;-70
2022/11/26 09:02:37;;;;;;;45.72;24.42;;;;;;;5.88;79.05;99372.09;5052791;28;20032;-69
2022/11/26 09:05:03;;;;;;;44.95;25.17;;;;;;;5.86;78.53;99374.25;5051334;28;20465;-70
2022/11/26 09:07:28;;;;;;;48.40;26.65;;;;;;;5.87;78.63;99381.34;5051135;28;20102;-70
2022/11/26 09:09:54;;;;;;;46.80;25.60;;;;;;;5.89;79.29;99378.34;5052147;28;20025;-70
2022/11/26 09:12:19;;;;;;;49.78;26.45;;;;;;;5.89;78.88;99383.81;5046877;28;20024;-70
2022/11/26 09:14:44;;;;;;;49.05;27.58;;;;;;;5.86;79.18;99379.69;5057233;28;20044;-70
2022/11/26 09:17:10;;;;;;;75.50;37.85;;;;;;;5.87;79.25;99392.22;5046723;28;20091;-70
2022/11/26 09:19:36;;;;;;;81.07;36.50;;;;;;;5.89;79.13;99390.09;5047884;28;20029;-70
2022/11/26 09:22:03;;;;;;;221.65;76.97;;;;;;;5.86;79.21;99387.84;5048988;28;20037;-70
2022/11/26 09:24:28;;;;;;;200.60;72.72;;;;;;;5.88;79.12;99384.88;5048603;28;20119;-70
2022/11/26 09:26:53;;;;;;;145.55;55.95;;;;;;;5.90;78.93;99385.47;5048384;28;20031;-70
2022/11/26 09:29:21;;;;;;;148.75;60.83;;;;;;;5.89;78.92;99390.09;5048986;28;20132;-70
2022/11/26 09:31:47;;;;;;;123.18;53.53;;;;;;;5.92;78.92;99403.19;5049100;28;20477;-70
2022/11/26 09:34:14;;;;;;;72.18;35.33;;;;;;;5.96;79.03;99393.47;5049020;28;20033;-70
2022/11/26 09:36:39;;;;;;;66.55;33.60;;;;;;;5.99;78.83;99388.63;5050631;28;20027;-69
2022/11/26 09:39:05;;;;;;;67.53;37.40;;;;;;;6.03;78.95;99387.09;5050754;28;20421;-70
2022/11/26 09:41:36;;;;;;;64.32;33.85;;;;;;;6.05;79.01;99401.28;5047506;28;20032;-69
2022/11/26 09:44:21;;;;;;;59.03;31.55;;;;;;;6.07;78.83;99390.97;5050367;28;20111;-70
2022/11/26 09:46:57;;;;;;;53.08;28.83;;;;;;;6.11;78.81;99400.31;5051359;28;20013;-68
2022/11/26 09:49:24;;;;;;;48.90;26.90;;;;;;;6.14;79.50;99399.84;5049400;28;20052;-69
2022/11/26 09:51:53;;;;;;;42.80;24.35;;;;;;;6.15;79.14;99396.03;5049919;28;20048;-70
2022/11/26 09:54:22;;;;;;;44.90;25.63;;;;;;;6.19;79.27;99401.81;5050046;28;20029;-69
2022/11/26 09:57:11;;;;;;;46.08;26.15;;;;;;;6.18;78.98;99400.16;5048714;28;20087;-69
2022/11/26 09:59:38;;;;;;;44.53;24.88;;;;;;;6.20;79.40;99398.03;5048870;28;20036;-69
2022/11/26 10:02:10;;;;;;;34.97;19.83;;;;;;;6.22;79.17;99402.19;5049477;28;20033;-70
2022/11/26 10:04:36;;;;;;;33.63;17.95;;;;;;;6.26;79.33;99405.22;5049593;28;20025;-69
2022/11/26 10:07:30;;;;;;;32.80;18.48;;;;;;;6.23;79.23;99392.09;5049228;28;20025;-69
2022/11/26 10:10:28;;;;;;;35.30;18.60;;;;;;;6.27;79.39;99404.16;5049076;28;20033;-70
2022/11/26 10:13:19;;;;;;;29.65;16.10;;;;;;;6.27;79.33;99397.91;5051320;28;20044;-70
2022/11/26 10:15:57;;;;;;;28.35;15.32;;;;;;;6.29;79.66;99409.38;5049481;28;20063;-70
2022/11/26 10:19:05;;;;;;;28.38;17.10;;;;;;;6.25;79.38;99409.88;5048789;28;20370;-70
2022/11/26 10:21:50;;;;;;;32.95;17.60;;;;;;;6.28;79.66;99413.97;5008988;28;20037;-69
2022/11/26 10:24:28;;;;;;;39.15;20.52;;;;;;;6.30;79.59;99409.13;5009158;28;20058;-70
2022/11/26 10:26:54;;;;;;;32.10;17.13;;;;;;;6.33;79.60;99407.78;5038159;28;20052;-69
2022/11/26 10:29:26;;;;;;;29.77;17.20;;;;;;;6.31;79.39;99408.03;5050272;28;20539;-70
2022/11/26 10:31:57;;;;;;;40.72;21.58;;;;;;;6.29;79.42;99409.38;5050610;28;20440;-70
2022/11/26 10:34:36;;;;;;;34.38;18.25;;;;;;;6.31;79.74;99415.41;5050655;28;20029;-70
2022/11/26 10:37:02;;;;;;;29.70;17.17;;;;;;;6.32;79.42;99400.69;5050686;28;20025;-69
2022/11/26 10:39:28;;;;;;;32.22;18.90;;;;;;;6.32;80.01;99409.69;5050205;28;20135;-70
2022/11/26 10:41:53;;;;;;;28.98;17.70;;;;;;;6.33;79.65;99405.91;5050442;28;20476;-70
2022/11/26 10:44:39;;;;;;;28.23;15.70;;;;;;;6.35;80.00;99395.59;5049496;28;20428;-70
2022/11/26 10:47:28;;;;;;;25.35;14.90;;;;;;;6.40;79.93;99400.28;5050380;28;20029;-70
2022/11/26 10:50:11;;;;;;;26.20;15.85;;;;;;;6.43;79.52;99402.53;5049830;28;20060;-70
2022/11/26 10:52:38;;;;;;;27.80;15.77;;;;;;;6.50;79.88;99410.56;5050435;28;20033;-70
2022/11/26 10:55:15;;;;;;;28.38;15.30;;;;;;;6.53;80.16;99408.16;5050359;28;20028;-70
2022/11/26 10:57:46;;;;;;;27.67;14.98;;;;;;;6.60;79.90;99412.63;5049927;28;20032;-70
2022/11/26 11:00:35;;;;;;;25.77;15.05;;;;;;;6.61;79.71;99406.91;5049647;28;20037;-70
2022/11/26 11:03:04;;;;;;;25.48;13.88;;;;;;;6.63;79.81;99410.22;5050212;28;20044;-69
2022/11/26 11:05:29;;;;;;;30.13;15.38;;;;;;;6.64;79.85;99403.72;5050360;28;20025;-70
2022/11/26 11:07:55;;;;;;;22.27;13.70;;;;;;;6.63;79.73;99403.97;5047256;28;20029;-69
2022/11/26 11:10:24;;;;;;;22.08;13.27;;;;;;;6.62;79.86;99405.03;5048370;28;20452;-70
2022/11/26 11:13:01;;;;;;;30.13;16.90;;;;;;;6.61;80.01;99404.19;5049815;28;20503;-70
2022/11/26 11:15:34;;;;;;;25.67;14.52;;;;;;;6.63;79.74;99406.69;5048085;28;20365;-69
2022/11/26 11:18:20;;;;;;;23.70;13.63;;;;;;;6.62;79.79;99405.84;5048424;28;20044;-69
2022/11/26 11:21:02;;;;;;;24.23;13.88;;;;;;;6.63;79.71;99409.41;5049006;28;20021;-69
2022/11/26 11:23:35;;;;;;;22.63;14.65;;;;;;;6.64;79.58;99408.34;5047095;28;20424;-69
2022/11/26 11:26:06;;;;;;;27.85;15.45;;;;;;;6.63;79.93;99403.97;5044315;28;20049;-69
2022/11/26 11:28:38;;;;;;;24.23;14.65;;;;;;;6.66;79.76;99400.75;5048631;28;20024;-71
2022/11/26 11:31:12;;;;;;;24.70;14.73;;;;;;;6.69;79.85;99413.88;5048961;28;20021;-70
2022/11/26 11:33:38;;;;;;;22.88;14.63;;;;;;;6.69;80.03;99406.53;5053097;28;20110;-70